createdAt,value
2023-05-26T00:00:25.532Z,12.15
2023-05-26T00:02:52.893Z,12.10
2023-05-26T00:05:21.460Z,12.07
2023-05-26T00:07:49.006Z,12.04
2023-05-26T00:10:16.226Z,12.01
2023-05-26T00:12:43.444Z,11.97
2023-05-26T00:15:10.900Z,11.89
2023-05-26T00:17:38.291Z,11.84
2023-05-26T00:20:08.770Z,11.80
2023-05-26T00:22:36.337Z,11.75
2023-05-26T00:25:04.470Z,11.73
2023-05-26T00:27:31.822Z,11.68
2023-05-26T00:29:59.338Z,11.64
2023-05-26T00:32:26.953Z,11.59
2023-05-26T00:34:54.262Z,11.54
2023-05-26T00:37:23.429Z,11.50
2023-05-26T00:39:50.638Z,11.46
2023-05-26T00:42:18.577Z,11.41
2023-05-26T00:44:45.756Z,11.38
2023-05-26T00:47:12.984Z,11.35
2023-05-26T00:49:40.268Z,11.31
2023-05-26T00:52:08.196Z,11.26
2023-05-26T00:54:36.267Z,11.24
2023-05-26T00:57:04.763Z,11.20
2023-05-26T00:59:32.448Z,11.14
2023-05-26T01:02:01.090Z,11.10
2023-05-26T01:04:28.263Z,11.07
2023-05-26T01:06:56.481Z,11.02
2023-05-26T01:09:24.080Z,10.97
2023-05-26T01:11:54.210Z,10.94
2023-05-26T01:14:32.257Z,10.90
2023-05-26T01:17:08.568Z,10.87
2023-05-26T01:19:53.386Z,10.84
2023-05-26T01:22:23.867Z,10.80
2023-05-26T01:25:07.665Z,10.79
2023-05-26T01:28:04.029Z,10.78
2023-05-26T01:30:32.623Z,10.73
2023-05-26T01:32:59.906Z,10.70
2023-05-26T01:35:27.210Z,10.69
2023-05-26T01:37:55.160Z,10.64
2023-05-26T01:40:22.966Z,10.61
2023-05-26T01:43:03.194Z,10.59
2023-05-26T01:45:43.284Z,10.57
2023-05-26T01:48:11.293Z,10.52
2023-05-26T01:50:48.782Z,10.48
2023-05-26T01:53:19.317Z,10.46
2023-05-26T01:55:47.315Z,10.44
2023-05-26T01:58:15.330Z,10.41
2023-05-26T02:00:48.907Z,10.39
2023-05-26T02:03:16.911Z,10.36
2023-05-26T02:05:44.654Z,10.34
2023-05-26T02:08:12.509Z,10.31
2023-05-26T02:10:40.422Z,10.26
2023-05-26T02:13:08.003Z,10.24
2023-05-26T02:15:35.581Z,10.22
2023-05-26T02:18:04.188Z,10.20
2023-05-26T02:20:31.808Z,10.15
2023-05-26T02:22:59.059Z,10.11
2023-05-26T02:25:26.260Z,10.08
2023-05-26T02:27:53.525Z,10.05
2023-05-26T02:30:21.262Z,10.02
2023-05-26T02:32:48.737Z,9.98
2023-05-26T02:35:15.953Z,9.94
2023-05-26T02:37:43.197Z,9.92
2023-05-26T02:40:11.124Z,9.88
2023-05-26T02:42:38.372Z,9.86
2023-05-26T02:45:06.190Z,9.84
2023-05-26T02:47:33.430Z,9.83
2023-05-26T02:50:00.717Z,9.83
2023-05-26T02:52:28.326Z,9.84
2023-05-26T02:54:55.593Z,9.84
2023-05-26T02:57:23.454Z,9.83
2023-05-26T02:59:50.586Z,9.83
2023-05-26T03:02:17.844Z,9.85
2023-05-26T03:04:45.026Z,9.85
2023-05-26T03:07:12.198Z,9.86
2023-05-26T03:09:39.428Z,9.88
2023-05-26T03:12:08.040Z,9.88
2023-05-26T03:14:35.429Z,9.88
2023-05-26T03:17:02.826Z,9.89
2023-05-26T03:19:30.151Z,9.94
2023-05-26T03:22:37.598Z,9.99
2023-05-26T03:24:44.732Z,9.99
2023-05-26T03:27:11.898Z,9.99
2023-05-26T03:29:39.061Z,9.98
2023-05-26T03:32:06.406Z,9.98
2023-05-26T03:34:34.205Z,9.96
2023-05-26T03:37:02.079Z,9.96
2023-05-26T03:39:29.238Z,9.99
2023-05-26T03:41:56.492Z,10.02
2023-05-26T03:44:24.321Z,10.05
2023-05-26T03:46:51.629Z,10.07
2023-05-26T03:49:20.925Z,10.11
2023-05-26T03:51:48.205Z,10.15
2023-05-26T03:54:15.351Z,10.16
2023-05-26T03:56:42.591Z,10.18
2023-05-26T03:59:10.117Z,10.19
2023-05-26T04:01:38.274Z,10.23
2023-05-26T04:04:05.700Z,10.25
2023-05-26T04:06:32.982Z,10.28
2023-05-26T04:09:01.695Z,10.32
2023-05-26T04:11:28.959Z,10.35
2023-05-26T04:13:56.270Z,10.38
2023-05-26T04:16:23.505Z,10.39
2023-05-26T04:18:50.858Z,10.42
2023-05-26T04:21:18.058Z,10.45
2023-05-26T04:23:48.491Z,10.47
2023-05-26T04:26:17.383Z,10.51
2023-05-26T04:28:45.243Z,10.52
2023-05-26T04:31:17.886Z,10.55
2023-05-26T04:33:46.074Z,10.57
2023-05-26T04:36:17.560Z,10.59
2023-05-26T04:38:48.941Z,10.63
2023-05-26T04:41:16.464Z,10.63
2023-05-26T04:43:44.571Z,10.68
2023-05-26T04:46:12.471Z,10.71
2023-05-26T04:48:59.777Z,10.75
2023-05-26T04:51:27.293Z,10.81
2023-05-26T04:53:54.413Z,10.86
2023-05-26T04:56:22.861Z,10.91
2023-05-26T04:58:50.082Z,10.98
2023-05-26T05:01:18.738Z,11.02
2023-05-26T05:03:46.165Z,11.10
2023-05-26T05:06:13.430Z,11.16
2023-05-26T05:08:40.576Z,11.22
2023-05-26T05:11:08.656Z,11.29
2023-05-26T05:13:35.832Z,11.36
2023-05-26T05:16:03.091Z,11.44
2023-05-26T05:18:30.263Z,11.51
2023-05-26T05:20:57.682Z,11.57
2023-05-26T05:23:25.141Z,11.64
2023-05-26T05:25:53.813Z,11.68
2023-05-26T05:28:20.965Z,11.76
2023-05-26T05:30:48.345Z,11.88
2023-05-26T05:33:15.870Z,11.95
2023-05-26T05:35:43.306Z,12.03
2023-05-26T05:38:10.687Z,12.09
2023-05-26T05:40:37.952Z,12.20
2023-05-26T05:43:05.458Z,12.30
2023-05-26T05:45:32.817Z,12.39
2023-05-26T05:48:00.218Z,12.46
2023-05-26T05:50:27.452Z,12.54
2023-05-26T05:52:54.632Z,12.59
2023-05-26T05:55:21.845Z,12.61
2023-05-26T05:57:49.767Z,12.64
2023-05-26T06:00:17.380Z,12.68
2023-05-26T06:02:44.703Z,12.75
2023-05-26T06:05:14.314Z,12.85
2023-05-26T06:07:41.497Z,12.90
2023-05-26T06:10:09.284Z,13.04
2023-05-26T06:12:36.462Z,13.17
2023-05-26T06:15:03.824Z,13.28
2023-05-26T06:17:31.626Z,13.39
2023-05-26T06:19:59.048Z,13.55
2023-05-26T06:22:26.214Z,13.71
2023-05-26T06:24:53.407Z,13.80
2023-05-26T06:27:20.564Z,13.90
2023-05-26T06:29:47.771Z,13.92
2023-05-26T06:32:15.040Z,14.04
2023-05-26T06:34:42.222Z,14.14
2023-05-26T06:37:09.489Z,14.17
2023-05-26T06:39:36.651Z,14.22
2023-05-26T06:42:04.110Z,14.28
2023-05-26T06:44:31.279Z,14.33
2023-05-26T06:46:58.469Z,14.42
2023-05-26T06:49:25.596Z,14.49
2023-05-26T06:51:52.866Z,14.60
2023-05-26T06:54:19.996Z,14.68
2023-05-26T06:56:47.179Z,14.77
2023-05-26T06:59:14.326Z,14.81
2023-05-26T07:01:41.645Z,14.86
2023-05-26T07:04:08.964Z,14.92
2023-05-26T07:06:46.761Z,15.06
2023-05-26T07:09:14.876Z,15.11
2023-05-26T07:11:42.085Z,15.20
2023-05-26T07:14:09.354Z,15.34
2023-05-26T07:16:36.559Z,15.39
2023-05-26T07:19:03.777Z,15.53
2023-05-26T07:21:32.154Z,15.63
2023-05-26T07:23:59.590Z,15.67
2023-05-26T07:26:26.749Z,15.65
2023-05-26T07:28:54.400Z,15.68
2023-05-26T07:31:22.546Z,15.69
2023-05-26T07:33:51.173Z,15.76
2023-05-26T07:36:18.463Z,15.81
2023-05-26T07:38:45.886Z,15.96
2023-05-26T07:41:13.074Z,16.10
2023-05-26T07:43:40.367Z,16.24
2023-05-26T07:46:07.595Z,16.42
2023-05-26T07:48:34.899Z,16.59
2023-05-26T07:51:02.032Z,16.74
2023-05-26T07:53:29.181Z,16.65
2023-05-26T07:55:56.339Z,16.63
2023-05-26T07:58:23.464Z,16.67
2023-05-26T08:00:50.609Z,16.66
2023-05-26T08:03:18.020Z,16.80
2023-05-26T08:05:45.736Z,16.84
2023-05-26T08:08:13.062Z,16.53
2023-05-26T08:10:40.329Z,16.54
2023-05-26T08:13:07.500Z,16.62
2023-05-26T08:15:35.657Z,16.76
2023-05-26T08:18:03.156Z,16.99
2023-05-26T08:20:30.542Z,17.18
2023-05-26T08:22:59.506Z,17.15
2023-05-26T08:25:27.389Z,17.22
2023-05-26T08:27:54.627Z,17.35
2023-05-26T08:30:21.780Z,17.24
2023-05-26T08:32:49.253Z,17.16
2023-05-26T08:35:16.402Z,17.24
2023-05-26T08:37:43.822Z,17.38
2023-05-26T08:40:12.834Z,17.48
2023-05-26T08:42:45.741Z,17.58
2023-05-26T08:45:13.771Z,17.77
2023-05-26T08:47:43.790Z,17.92
2023-05-26T08:50:12.186Z,18.02
2023-05-26T08:52:45.617Z,18.12
2023-05-26T08:55:18.266Z,18.22
2023-05-26T08:57:45.930Z,18.02
2023-05-26T09:00:13.972Z,18.12
2023-05-26T09:02:41.434Z,18.31
2023-05-26T09:05:09.518Z,18.51
2023-05-26T09:07:36.734Z,18.42
2023-05-26T09:10:22.799Z,18.54
2023-05-26T09:12:49.959Z,18.51
2023-05-26T09:15:21.431Z,18.38
2023-05-26T09:17:49.549Z,18.49
2023-05-26T09:20:16.963Z,18.45
2023-05-26T09:22:45.523Z,18.34
2023-05-26T09:25:12.796Z,18.38
2023-05-26T09:27:39.946Z,18.45
2023-05-26T09:30:07.795Z,18.45
2023-05-26T09:32:36.052Z,18.54
2023-05-26T09:35:04.416Z,18.71
2023-05-26T09:37:33.250Z,18.56
2023-05-26T09:40:15.710Z,18.53
2023-05-26T09:42:53.068Z,18.57
2023-05-26T09:45:20.651Z,18.61
2023-05-26T09:47:56.513Z,18.56
2023-05-26T09:50:25.333Z,18.67
2023-05-26T09:52:52.537Z,18.76
2023-05-26T09:55:19.849Z,18.62
2023-05-26T09:57:47.478Z,18.65
2023-05-26T10:00:17.434Z,18.85
2023-05-26T10:02:46.522Z,18.99
2023-05-26T10:05:15.034Z,19.12
2023-05-26T10:07:43.189Z,19.06
2023-05-26T10:10:14.773Z,19.09
2023-05-26T10:12:43.234Z,19.10
2023-05-26T10:15:11.211Z,19.28
2023-05-26T10:17:40.345Z,19.53
2023-05-26T10:20:09.776Z,19.57
2023-05-26T10:22:51.698Z,19.47
2023-05-26T10:25:27.376Z,19.49
2023-05-26T10:28:00.308Z,19.71
2023-05-26T10:30:28.118Z,20.07
2023-05-26T10:33:09.521Z,20.40
2023-05-26T10:35:36.946Z,20.55
2023-05-26T10:38:04.131Z,20.38
2023-05-26T10:40:31.292Z,20.37
2023-05-26T10:43:03.569Z,20.41
2023-05-26T10:45:32.645Z,20.56
2023-05-26T10:48:12.460Z,20.65
2023-05-26T10:50:59.377Z,20.95
2023-05-26T10:53:31.370Z,21.12
2023-05-26T10:56:00.276Z,21.17
2023-05-26T10:58:34.560Z,21.24
2023-05-26T11:01:04.308Z,21.29
2023-05-26T11:03:45.553Z,21.10
2023-05-26T11:06:15.400Z,20.93
2023-05-26T11:08:46.391Z,21.10
2023-05-26T11:11:18.362Z,20.88
2023-05-26T11:13:47.683Z,20.91
2023-05-26T11:16:18.792Z,21.18
2023-05-26T11:18:53.904Z,21.35
2023-05-26T11:21:28.276Z,21.55
2023-05-26T11:23:57.462Z,21.57
2023-05-26T11:26:26.468Z,21.89
2023-05-26T11:28:54.061Z,22.24
2023-05-26T11:31:26.880Z,22.35
2023-05-26T11:33:55.705Z,22.60
2023-05-26T11:36:23.431Z,22.80
2023-05-26T11:38:57.880Z,22.90
2023-05-26T11:41:28.497Z,23.20
2023-05-26T11:43:57.342Z,23.44
2023-05-26T11:46:28.590Z,23.58
2023-05-26T11:48:56.043Z,23.50
2023-05-26T11:51:23.303Z,23.13
2023-05-26T11:53:57.665Z,22.85
2023-05-26T11:56:36.541Z,23.04
2023-05-26T11:59:05.064Z,23.21
2023-05-26T12:01:33.589Z,23.39
2023-05-26T12:04:01.955Z,23.74
2023-05-26T12:06:30.714Z,23.95
2023-05-26T12:09:05.119Z,23.95
2023-05-26T12:11:34.323Z,24.02
2023-05-26T12:14:12.464Z,24.08
2023-05-26T12:16:43.266Z,24.28
2023-05-26T12:19:12.504Z,24.43
2023-05-26T12:21:42.065Z,24.26
2023-05-26T12:24:09.813Z,24.46
2023-05-26T12:26:37.342Z,24.61
2023-05-26T12:29:08.172Z,24.66
2023-05-26T12:31:39.210Z,24.59
2023-05-26T12:34:07.650Z,24.72
2023-05-26T12:36:35.194Z,24.84
2023-05-26T12:39:02.426Z,24.92
2023-05-26T12:41:29.689Z,24.94
2023-05-26T12:43:56.835Z,24.94
2023-05-26T12:46:25.396Z,24.84
2023-05-26T12:48:53.898Z,25.11
2023-05-26T12:51:22.156Z,25.36
2023-05-26T12:53:49.386Z,25.47
2023-05-26T12:56:17.325Z,25.40
2023-05-26T12:58:44.644Z,25.23
2023-05-26T13:01:12.475Z,25.30
2023-05-26T13:03:41.888Z,25.52
2023-05-26T13:06:10.090Z,25.65
2023-05-26T13:08:37.399Z,25.89
2023-05-26T13:11:04.647Z,26.21
2023-05-26T13:13:32.278Z,26.45
2023-05-26T13:16:03.020Z,25.88
2023-05-26T13:18:34.193Z,25.88
2023-05-26T13:21:01.232Z,26.17
2023-05-26T13:23:28.384Z,26.21
2023-05-26T13:25:55.610Z,26.45
2023-05-26T13:28:23.928Z,26.81
2023-05-26T13:30:51.166Z,27.24
2023-05-26T13:33:18.429Z,27.41
2023-05-26T13:35:45.752Z,27.39
2023-05-26T13:38:12.946Z,27.13
2023-05-26T13:40:40.958Z,27.14
2023-05-26T13:43:09.487Z,27.17
2023-05-26T13:45:37.080Z,27.09
2023-05-26T13:48:05.478Z,27.22
2023-05-26T13:50:32.742Z,27.34
2023-05-26T13:52:59.865Z,27.73
2023-05-26T13:55:27.350Z,27.92
2023-05-26T13:57:54.773Z,28.42
2023-05-26T14:00:22.008Z,28.43
2023-05-26T14:02:51.099Z,28.71
2023-05-26T14:05:19.876Z,28.85
2023-05-26T14:07:47.232Z,28.73
2023-05-26T14:10:15.910Z,28.92
2023-05-26T14:12:43.352Z,28.82
2023-05-26T14:15:11.210Z,29.00
2023-05-26T14:17:38.660Z,29.14
2023-05-26T14:20:08.009Z,29.17
2023-05-26T14:22:38.322Z,29.44
2023-05-26T14:25:06.140Z,29.82
2023-05-26T14:27:33.461Z,30.83
2023-05-26T14:30:00.757Z,32.42
2023-05-26T14:32:27.962Z,34.49
2023-05-26T14:34:55.264Z,36.06
2023-05-26T14:37:22.560Z,36.62
2023-05-26T14:39:49.742Z,37.97
2023-05-26T14:42:17.076Z,39.37
2023-05-26T14:44:44.261Z,40.83
2023-05-26T14:47:11.549Z,41.63
2023-05-26T14:49:38.708Z,43.30
2023-05-26T14:52:06.464Z,43.39
2023-05-26T14:54:33.800Z,42.72
2023-05-26T14:57:01.609Z,44.21
2023-05-26T14:59:28.918Z,45.15
2023-05-26T15:01:56.214Z,45.74
2023-05-26T15:04:23.464Z,46.09
2023-05-26T15:06:51.472Z,46.17
2023-05-26T15:09:18.672Z,46.07
2023-05-26T15:11:46.061Z,46.44
2023-05-26T15:14:13.297Z,46.35
2023-05-26T15:16:40.635Z,46.68
2023-05-26T15:19:07.964Z,47.74
2023-05-26T15:21:38.723Z,47.81
2023-05-26T15:24:08.035Z,47.32
2023-05-26T15:26:35.894Z,47.00
2023-05-26T15:29:03.149Z,46.61
2023-05-26T15:31:30.463Z,47.29
2023-05-26T15:33:57.711Z,48.15
2023-05-26T15:36:25.963Z,48.38
2023-05-26T15:38:57.839Z,48.27
2023-05-26T15:41:29.048Z,47.81
2023-05-26T15:43:57.045Z,47.78
2023-05-26T15:46:24.233Z,47.41
2023-05-26T15:48:51.568Z,47.24
2023-05-26T15:51:18.782Z,46.91
2023-05-26T15:53:46.029Z,46.60
2023-05-26T15:56:13.242Z,46.56
2023-05-26T15:58:40.827Z,45.77
2023-05-26T16:01:08.481Z,44.83
2023-05-26T16:03:39.121Z,45.19
2023-05-26T16:06:08.112Z,45.38
2023-05-26T16:08:37.779Z,45.26
2023-05-26T16:11:05.237Z,45.01
2023-05-26T16:13:33.530Z,44.98
2023-05-26T16:16:00.785Z,44.91
2023-05-26T16:18:28.081Z,44.74
2023-05-26T16:20:55.386Z,44.48
2023-05-26T16:23:22.921Z,44.02
2023-05-26T16:25:52.725Z,41.75
2023-05-26T16:28:20.796Z,38.04
2023-05-26T16:30:48.420Z,34.78
2023-05-26T16:33:17.394Z,32.43
2023-05-26T16:35:47.156Z,30.59
2023-05-26T16:38:14.391Z,29.32
2023-05-26T16:40:41.619Z,28.22
2023-05-26T16:43:11.676Z,27.57
2023-05-26T16:45:38.926Z,26.87
2023-05-26T16:48:06.278Z,26.43
2023-05-26T16:50:33.476Z,25.89
2023-05-26T16:53:00.716Z,25.47
2023-05-26T16:55:27.863Z,25.09
2023-05-26T16:57:55.068Z,24.81
2023-05-26T17:00:22.331Z,24.49
2023-05-26T17:02:49.607Z,23.96
2023-05-26T17:05:17.169Z,23.57
2023-05-26T17:07:44.468Z,23.35
2023-05-26T17:10:11.813Z,23.09
2023-05-26T17:12:39.121Z,22.91
2023-05-26T17:15:07.852Z,22.67
2023-05-26T17:17:35.217Z,22.43
2023-05-26T17:20:03.208Z,22.28
2023-05-26T17:22:30.798Z,22.06
2023-05-26T17:24:58.100Z,21.88
2023-05-26T17:27:25.412Z,21.71
2023-05-26T17:29:52.675Z,21.59
2023-05-26T17:32:20.009Z,21.32
2023-05-26T17:34:47.841Z,21.08
2023-05-26T17:37:15.297Z,20.95
2023-05-26T17:39:43.228Z,20.89
2023-05-26T17:42:10.841Z,20.71
2023-05-26T17:44:38.109Z,20.45
2023-05-26T17:47:06.023Z,20.26
2023-05-26T17:49:33.525Z,20.10
2023-05-26T17:52:00.997Z,19.84
2023-05-26T17:54:29.943Z,19.66
2023-05-26T17:56:57.934Z,19.44
2023-05-26T17:59:25.781Z,19.40
2023-05-26T18:01:53.368Z,19.33
2023-05-26T18:04:20.969Z,19.14
2023-05-26T18:06:48.307Z,19.05
2023-05-26T18:09:16.910Z,18.90
2023-05-26T18:11:45.213Z,18.78
2023-05-26T18:14:13.024Z,18.68
2023-05-26T18:16:40.997Z,18.57
2023-05-26T18:19:08.753Z,18.36
2023-05-26T18:21:39.190Z,18.19
2023-05-26T18:24:06.921Z,18.04
2023-05-26T18:26:34.424Z,17.96
2023-05-26T18:29:01.815Z,17.81
2023-05-26T18:31:30.038Z,17.67
2023-05-26T18:34:00.443Z,17.52
2023-05-26T18:36:32.752Z,17.36
2023-05-26T18:39:00.041Z,17.24
2023-05-26T18:41:27.636Z,17.07
2023-05-26T18:43:54.878Z,16.94
2023-05-26T18:46:22.300Z,16.76
2023-05-26T18:48:49.546Z,16.64
2023-05-26T18:51:17.771Z,16.57
2023-05-26T18:53:44.976Z,16.46
2023-05-26T18:56:12.838Z,16.38
2023-05-26T18:58:40.154Z,16.29
2023-05-26T19:01:07.500Z,16.17
2023-05-26T19:03:36.301Z,16.06
2023-05-26T19:06:03.666Z,16.01
2023-05-26T19:08:30.913Z,15.94
2023-05-26T19:10:59.496Z,15.82
2023-05-26T19:13:26.827Z,15.72
2023-05-26T19:15:54.170Z,15.65
2023-05-26T19:18:22.587Z,15.56
2023-05-26T19:20:50.168Z,15.45
2023-05-26T19:23:17.449Z,15.38
2023-05-26T19:25:44.650Z,15.35
2023-05-26T19:28:17.206Z,15.28
2023-05-26T19:30:46.029Z,15.19
2023-05-26T19:33:13.488Z,15.11
2023-05-26T19:35:40.711Z,15.01
2023-05-26T19:38:07.915Z,14.90
2023-05-26T19:40:36.413Z,14.84
2023-05-26T19:43:03.730Z,14.77
2023-05-26T19:45:31.192Z,14.70
2023-05-26T19:47:58.575Z,14.63
2023-05-26T19:50:25.999Z,14.60
2023-05-26T19:52:54.629Z,14.57
2023-05-26T19:55:22.837Z,14.51
2023-05-26T19:57:50.183Z,14.46
2023-05-26T20:00:17.535Z,14.39
2023-05-26T20:02:44.902Z,14.35
2023-05-26T20:05:12.174Z,14.32
2023-05-26T20:07:39.420Z,14.28
2023-05-26T20:10:06.818Z,14.26
2023-05-26T20:12:34.143Z,14.24
2023-05-26T20:15:01.737Z,14.19
2023-05-26T20:17:28.947Z,14.16
2023-05-26T20:20:11.651Z,14.14
2023-05-26T20:22:40.674Z,14.11
2023-05-26T20:25:08.482Z,14.09
2023-05-26T20:27:38.994Z,14.04
2023-05-26T20:30:07.746Z,13.93
2023-05-26T20:32:35.837Z,13.87
2023-05-26T20:35:03.814Z,13.83
2023-05-26T20:37:31.536Z,13.80
2023-05-26T20:39:59.797Z,13.74
2023-05-26T20:42:30.859Z,13.67
2023-05-26T20:44:58.184Z,13.63
2023-05-26T20:47:26.124Z,13.56
2023-05-26T20:49:53.589Z,13.52
2023-05-26T20:52:21.592Z,13.49
2023-05-26T20:54:48.799Z,13.43
2023-05-26T20:57:16.114Z,13.39
2023-05-26T20:59:43.534Z,13.34
2023-05-26T21:02:11.006Z,13.30
2023-05-26T21:04:38.304Z,13.27
2023-05-26T21:07:05.480Z,13.25
2023-05-26T21:09:32.965Z,13.21
2023-05-26T21:12:00.222Z,13.16
2023-05-26T21:14:27.801Z,13.12
2023-05-26T21:16:55.123Z,13.09
2023-05-26T21:19:22.446Z,13.05
2023-05-26T21:21:51.081Z,13.02
2023-05-26T21:24:18.518Z,13.00
2023-05-26T21:26:45.951Z,12.99
2023-05-26T21:29:13.386Z,12.95
2023-05-26T21:31:40.828Z,12.91
2023-05-26T21:34:08.180Z,12.88
2023-05-26T21:36:36.683Z,12.87
2023-05-26T21:39:05.124Z,12.85
2023-05-26T21:41:32.602Z,12.81
2023-05-26T21:43:59.825Z,12.77
2023-05-26T21:46:27.107Z,12.74
2023-05-26T21:48:54.597Z,12.72
2023-05-26T21:51:21.839Z,12.71
2023-05-26T21:53:49.075Z,12.69
2023-05-26T21:56:16.335Z,12.68
2023-05-26T21:58:44.838Z,12.60
2023-05-26T22:01:12.468Z,12.55
2023-05-26T22:03:39.860Z,12.52
2023-05-26T22:06:08.517Z,12.49
2023-05-26T22:08:35.793Z,12.47
2023-05-26T22:11:02.976Z,12.45
2023-05-26T22:13:30.798Z,12.40
2023-05-26T22:15:58.298Z,12.35
2023-05-26T22:18:26.019Z,12.31
2023-05-26T22:20:53.173Z,12.29
2023-05-26T22:23:20.370Z,12.24
2023-05-26T22:25:47.642Z,12.15
2023-05-26T22:28:14.949Z,12.08
2023-05-26T22:30:42.166Z,12.05
2023-05-26T22:33:09.401Z,12.03
2023-05-26T22:35:36.677Z,11.99
2023-05-26T22:38:03.911Z,11.96
2023-05-26T22:40:31.147Z,11.89
2023-05-26T22:42:58.301Z,11.86
2023-05-26T22:45:25.596Z,11.80
2023-05-26T22:47:52.814Z,11.78
2023-05-26T22:50:22.103Z,11.74
2023-05-26T22:52:49.306Z,11.71
2023-05-26T22:55:16.434Z,11.68
2023-05-26T22:57:43.757Z,11.63
2023-05-26T23:00:11.496Z,11.58
2023-05-26T23:02:38.798Z,11.54
2023-05-26T23:05:07.149Z,11.49
2023-05-26T23:07:35.930Z,11.47
2023-05-26T23:10:04.107Z,11.46
2023-05-26T23:12:31.246Z,11.44
2023-05-26T23:14:58.532Z,11.41
2023-05-26T23:17:25.792Z,11.40
2023-05-26T23:19:53.020Z,11.36
2023-05-26T23:22:20.266Z,11.29
2023-05-26T23:24:47.463Z,11.23
2023-05-26T23:27:14.650Z,11.18
2023-05-26T23:29:41.935Z,11.11
2023-05-26T23:32:09.163Z,11.07
2023-05-26T23:34:36.363Z,11.02
2023-05-26T23:37:03.618Z,10.99
2023-05-26T23:39:30.936Z,10.96
2023-05-26T23:41:58.089Z,10.93
2023-05-26T23:44:25.345Z,10.88
2023-05-26T23:46:52.603Z,10.82
2023-05-26T23:49:20.085Z,10.79
2023-05-26T23:51:47.254Z,10.76
2023-05-26T23:54:14.429Z,10.74
2023-05-26T23:56:41.607Z,10.70
2023-05-26T23:59:08.842Z,10.68
